sensor_id;sensor_type;location;lat;lon;timestamp;pressure;altitude;pressure_sealevel;temperature;humidity
21185;BME280;18176;49.502;11.754;2023-02-22T00:02:18;97003.06;;;6.90;78.46
21185;BME280;18176;49.502;11.754;2023-02-22T00:06:25;96997.59;;;6.85;78.84
21185;BME280;18176;49.502;11.754;2023-02-22T00:10:30;96992.56;;;6.77;79.06
21185;BME280;18176;49.502;11.754;2023-02-22T00:14:30;96980.00;;;6.66;79.25
21185;BME280;18176;49.502;11.754;2023-02-22T00:18:30;96986.66;;;6.75;80.15
21185;BME280;18176;49.502;11.754;2023-02-22T00:22:33;96973.13;;;6.65;80.49
21185;BME280;18176;49.502;11.754;2023-02-22T00:26:37;96981.00;;;6.78;80.12
21185;BME280;18176;49.502;11.754;2023-02-22T00:30:37;96984.66;;;6.64;79.83
21185;BME280;18176;49.502;11.754;2023-02-22T00:34:40;96976.97;;;6.56;79.80
21185;BME280;18176;49.502;11.754;2023-02-22T00:38:41;96967.66;;;6.33;80.12
21185;BME280;18176;49.502;11.754;2023-02-22T00:42:45;96947.41;;;6.14;79.92
21185;BME280;18176;49.502;11.754;2023-02-22T00:46:45;96979.81;;;6.28;80.01
21185;BME280;18176;49.502;11.754;2023-02-22T00:50:46;96979.38;;;6.18;80.10
21185;BME280;18176;49.502;11.754;2023-02-22T00:54:52;96972.09;;;6.13;80.04
21185;BME280;18176;49.502;11.754;2023-02-22T00:58:56;96968.25;;;6.09;79.61
21185;BME280;18176;49.502;11.754;2023-02-22T01:02:58;96970.28;;;6.07;79.25
21185;BME280;18176;49.502;11.754;2023-02-22T01:06:58;96970.66;;;6.04;79.88
21185;BME280;18176;49.502;11.754;2023-02-22T01:10:59;96955.88;;;6.03;79.75
21185;BME280;18176;49.502;11.754;2023-02-22T01:15:04;96960.53;;;6.01;79.07
21185;BME280;18176;49.502;11.754;2023-02-22T01:19:06;96953.47;;;6.08;78.42
21185;BME280;18176;49.502;11.754;2023-02-22T01:23:08;96950.63;;;6.03;78.47
21185;BME280;18176;49.502;11.754;2023-02-22T01:27:09;96944.16;;;6.06;78.54
21185;BME280;18176;49.502;11.754;2023-02-22T01:31:13;96949.03;;;6.15;78.67
21185;BME280;18176;49.502;11.754;2023-02-22T01:35:19;96946.22;;;6.17;78.76
21185;BME280;18176;49.502;11.754;2023-02-22T01:39:20;96940.94;;;6.10;79.10
21185;BME280;18176;49.502;11.754;2023-02-22T01:43:24;96931.00;;;5.99;79.84
21185;BME280;18176;49.502;11.754;2023-02-22T01:47:28;96938.94;;;6.12;78.90
21185;BME280;18176;49.502;11.754;2023-02-22T01:51:32;96940.53;;;6.13;78.38
21185;BME280;18176;49.502;11.754;2023-02-22T01:55:36;96925.97;;;6.17;78.10
21185;BME280;18176;49.502;11.754;2023-02-22T01:59:45;96925.13;;;6.04;78.39
21185;BME280;18176;49.502;11.754;2023-02-22T02:03:56;96926.34;;;6.01;77.96
21185;BME280;18176;49.502;11.754;2023-02-22T02:08:02;96922.72;;;5.96;77.99
21185;BME280;18176;49.502;11.754;2023-02-22T02:12:08;96908.94;;;5.87;78.39
21185;BME280;18176;49.502;11.754;2023-02-22T02:16:11;96917.41;;;5.83;79.27
21185;BME280;18176;49.502;11.754;2023-02-22T02:20:27;96913.97;;;5.82;79.88
21185;BME280;18176;49.502;11.754;2023-02-22T02:25:26;96920.22;;;5.81;80.63
21185;BME280;18176;49.502;11.754;2023-02-22T02:34:42;96910.56;;;5.88;81.11
21185;BME280;18176;49.502;11.754;2023-02-22T02:38:58;96910.19;;;5.91;81.10
21185;BME280;18176;49.502;11.754;2023-02-22T02:43:14;96898.63;;;5.92;81.53
21185;BME280;18176;49.502;11.754;2023-02-22T02:47:24;96895.00;;;5.93;81.94
21185;BME280;18176;49.502;11.754;2023-02-22T02:51:38;96901.25;;;5.99;82.23
21185;BME280;18176;49.502;11.754;2023-02-22T02:55:46;96904.09;;;6.10;81.78
21185;BME280;18176;49.502;11.754;2023-02-22T02:59:50;96895.81;;;6.13;81.72
21185;BME280;18176;49.502;11.754;2023-02-22T03:04:18;96897.84;;;6.18;82.10
21185;BME280;18176;49.502;11.754;2023-02-22T03:08:34;96894.00;;;6.20;82.22
21185;BME280;18176;49.502;11.754;2023-02-22T03:12:56;96895.22;;;6.11;82.37
21185;BME280;18176;49.502;11.754;2023-02-22T03:17:15;96882.25;;;6.03;82.35
21185;BME280;18176;49.502;11.754;2023-02-22T03:21:30;96888.75;;;6.07;82.26
21185;BME280;18176;49.502;11.754;2023-02-22T03:25:50;96889.53;;;5.88;82.87
21185;BME280;18176;49.502;11.754;2023-02-22T03:29:57;96883.88;;;5.91;82.68
21185;BME280;18176;49.502;11.754;2023-02-22T03:34:10;96879.44;;;5.98;82.92
21185;BME280;18176;49.502;11.754;2023-02-22T03:38:19;96883.88;;;5.91;83.11
21185;BME280;18176;49.502;11.754;2023-02-22T03:42:34;96877.56;;;5.79;82.96
21185;BME280;18176;49.502;11.754;2023-02-22T03:46:40;96889.13;;;5.91;83.05
21185;BME280;18176;49.502;11.754;2023-02-22T03:50:52;96879.81;;;5.82;83.37
21185;BME280;18176;49.502;11.754;2023-02-22T03:54:56;96883.50;;;6.01;82.84
21185;BME280;18176;49.502;11.754;2023-02-22T03:59:04;96881.25;;;5.98;83.08
21185;BME280;18176;49.502;11.754;2023-02-22T04:03:10;96891.97;;;5.96;83.27
21185;BME280;18176;49.502;11.754;2023-02-22T04:07:14;96893.16;;;5.87;83.97
21185;BME280;18176;49.502;11.754;2023-02-22T04:11:19;96890.75;;;5.99;83.59
21185;BME280;18176;49.502;11.754;2023-02-22T04:15:23;96896.03;;;6.05;83.68
21185;BME280;18176;49.502;11.754;2023-02-22T04:19:31;96879.44;;;5.98;83.22
21185;BME280;18176;49.502;11.754;2023-02-22T04:23:44;96891.34;;;6.20;83.00
21185;BME280;18176;49.502;11.754;2023-02-22T04:27:47;96874.16;;;6.24;82.44
21185;BME280;18176;49.502;11.754;2023-02-22T04:32:18;96879.41;;;6.38;82.36
21185;BME280;18176;49.502;11.754;2023-02-22T04:36:23;96876.97;;;6.36;82.89
21185;BME280;18176;49.502;11.754;2023-02-22T04:40:27;96870.09;;;6.35;82.75
21185;BME280;18176;49.502;11.754;2023-02-22T04:44:30;96873.34;;;6.30;82.97
21185;BME280;18176;49.502;11.754;2023-02-22T04:48:47;96871.13;;;6.27;82.76
21185;BME280;18176;49.502;11.754;2023-02-22T04:52:57;96873.16;;;6.25;82.71
21185;BME280;18176;49.502;11.754;2023-02-22T04:57:03;96864.84;;;6.35;82.69
21185;BME280;18176;49.502;11.754;2023-02-22T05:01:06;96867.25;;;6.36;82.60
21185;BME280;18176;49.502;11.754;2023-02-22T05:05:10;96859.59;;;6.28;82.71
21185;BME280;18176;49.502;11.754;2023-02-22T05:09:16;96864.25;;;6.33;82.98
21185;BME280;18176;49.502;11.754;2023-02-22T05:13:30;96867.28;;;6.30;83.05
21185;BME280;18176;49.502;11.754;2023-02-22T05:17:36;96867.28;;;6.30;83.34
21185;BME280;18176;49.502;11.754;2023-02-22T05:21:46;96869.50;;;6.33;83.50
21185;BME280;18176;49.502;11.754;2023-02-22T05:25:47;96864.81;;;6.42;83.08
21185;BME280;18176;49.502;11.754;2023-02-22T05:29:59;96854.28;;;6.48;82.28
21185;BME280;18176;49.502;11.754;2023-02-22T05:34:00;96856.34;;;6.26;82.46
21185;BME280;18176;49.502;11.754;2023-02-22T05:38:09;96865.25;;;6.32;83.18
21185;BME280;18176;49.502;11.754;2023-02-22T05:42:13;96865.63;;;6.35;82.82
21185;BME280;18176;49.502;11.754;2023-02-22T05:46:14;96854.72;;;6.25;82.71
21185;BME280;18176;49.502;11.754;2023-02-22T05:50:17;96862.00;;;6.30;83.14
21185;BME280;18176;49.502;11.754;2023-02-22T05:54:28;96855.13;;;6.22;83.41
21185;BME280;18176;49.502;11.754;2023-02-22T05:58:30;96864.84;;;6.28;83.45
21185;BME280;18176;49.502;11.754;2023-02-22T06:02:32;96866.06;;;6.32;83.11
21185;BME280;18176;49.502;11.754;2023-02-22T06:06:51;96865.63;;;6.35;83.07
21185;BME280;18176;49.502;11.754;2023-02-22T06:11:00;96856.75;;;6.30;83.77
21185;BME280;18176;49.502;11.754;2023-02-22T06:15:02;96856.09;;;6.61;83.81
21185;BME280;18176;49.502;11.754;2023-02-22T06:19:04;96856.00;;;6.87;85.35
21185;BME280;18176;49.502;11.754;2023-02-22T06:23:07;96855.47;;;7.16;85.88
21185;BME280;18176;49.502;11.754;2023-02-22T06:27:13;96861.81;;;7.02;83.88
21185;BME280;18176;49.502;11.754;2023-02-22T06:31:16;96860.25;;;6.88;82.71
21185;BME280;18176;49.502;11.754;2023-02-22T06:35:21;96858.88;;;6.79;82.89
21185;BME280;18176;49.502;11.754;2023-02-22T06:39:21;96859.91;;;6.71;82.51
21185;BME280;18176;49.502;11.754;2023-02-22T06:43:36;96860.72;;;6.72;82.63
21185;BME280;18176;49.502;11.754;2023-02-22T06:47:40;96872.84;;;6.73;81.71
21185;BME280;18176;49.502;11.754;2023-02-22T06:51:44;96865.56;;;6.81;81.20
21185;BME280;18176;49.502;11.754;2023-02-22T06:55:48;96870.41;;;6.78;81.31
21185;BME280;18176;49.502;11.754;2023-02-22T06:59:53;96865.94;;;6.85;80.92
21185;BME280;18176;49.502;11.754;2023-02-22T07:03:54;96873.63;;;6.93;81.28
21185;BME280;18176;49.502;11.754;2023-02-22T07:08:04;96865.53;;;6.88;80.16
21185;BME280;18176;49.502;11.754;2023-02-22T07:12:17;96871.41;;;6.83;79.63
21185;BME280;18176;49.502;11.754;2023-02-22T07:16:24;96880.28;;;7.02;80.00
21185;BME280;18176;49.502;11.754;2023-02-22T07:20:31;96876.28;;;7.31;79.42
21185;BME280;18176;49.502;11.754;2023-02-22T07:24:36;96877.66;;;7.40;79.15
21185;BME280;18176;49.502;11.754;2023-02-22T07:28:41;96867.31;;;7.38;78.83
21185;BME280;18176;49.502;11.754;2023-02-22T07:32:57;96876.25;;;7.37;79.41
21185;BME280;18176;49.502;11.754;2023-02-22T07:37:12;96871.69;;;7.57;79.78
21185;BME280;18176;49.502;11.754;2023-02-22T07:41:16;96876.19;;;7.82;78.94
21185;BME280;18176;49.502;11.754;2023-02-22T07:45:22;96866.56;;;7.94;77.89
21185;BME280;18176;49.502;11.754;2023-02-22T07:49:26;96857.75;;;8.31;77.53
21185;BME280;18176;49.502;11.754;2023-02-22T07:53:31;96866.72;;;8.48;76.09
21185;BME280;18176;49.502;11.754;2023-02-22T07:57:43;96861.56;;;8.35;75.42
21185;BME280;18176;49.502;11.754;2023-02-22T08:01:49;96862.31;;;8.42;76.12
21185;BME280;18176;49.502;11.754;2023-02-22T08:05:56;96855.09;;;8.56;76.16
21185;BME280;18176;49.502;11.754;2023-02-22T08:09:59;96859.19;;;8.70;75.76
21185;BME280;18176;49.502;11.754;2023-02-22T08:14:06;96858.81;;;8.48;76.39
21185;BME280;18176;49.502;11.754;2023-02-22T08:18:18;96861.91;;;8.63;76.23
21185;BME280;18176;49.502;11.754;2023-02-22T08:22:23;96859.47;;;8.62;76.94
21185;BME280;18176;49.502;11.754;2023-02-22T08:26:32;96861.75;;;8.94;75.93
21185;BME280;18176;49.502;11.754;2023-02-22T08:30:38;96854.41;;;8.96;76.54
21185;BME280;18176;49.502;11.754;2023-02-22T08:34:42;96860.72;;;9.13;76.02
21185;BME280;18176;49.502;11.754;2023-02-22T08:38:51;96853.16;;;9.47;76.02
21185;BME280;18176;49.502;11.754;2023-02-22T08:42:55;96860.13;;;9.30;76.41
21185;BME280;18176;49.502;11.754;2023-02-22T08:47:00;96856.25;;;9.73;74.65
21185;BME280;18176;49.502;11.754;2023-02-22T08:51:00;96857.28;;;9.72;74.37
21185;BME280;18176;49.502;11.754;2023-02-22T08:55:13;96858.44;;;9.76;74.99
21185;BME280;18176;49.502;11.754;2023-02-22T08:59:15;96851.25;;;10.07;74.27
21185;BME280;18176;49.502;11.754;2023-02-22T09:03:18;96849.91;;;10.27;74.00
21185;BME280;18176;49.502;11.754;2023-02-22T09:07:26;96842.22;;;10.61;72.88
21185;BME280;18176;49.502;11.754;2023-02-22T09:11:35;96849.88;;;10.97;70.88
21185;BME280;18176;49.502;11.754;2023-02-22T09:15:44;96854.00;;;11.16;71.06
21185;BME280;18176;49.502;11.754;2023-02-22T09:19:49;96848.50;;;11.34;69.32
21185;BME280;18176;49.502;11.754;2023-02-22T09:23:53;96851.22;;;11.11;69.44
21185;BME280;18176;49.502;11.754;2023-02-22T09:27:57;96846.97;;;11.38;68.44
21185;BME280;18176;49.502;11.754;2023-02-22T09:32:01;96842.91;;;11.47;68.14
21185;BME280;18176;49.502;11.754;2023-02-22T09:36:20;96838.75;;;11.23;68.66
21185;BME280;18176;49.502;11.754;2023-02-22T09:40:29;96833.97;;;11.37;68.72
21185;BME280;18176;49.502;11.754;2023-02-22T09:44:46;96836.56;;;11.48;68.50
21185;BME280;18176;49.502;11.754;2023-02-22T09:49:02;96830.41;;;11.87;68.56
21185;BME280;18176;49.502;11.754;2023-02-22T09:53:22;96824.53;;;12.19;68.19
21185;BME280;18176;49.502;11.754;2023-02-22T09:57:37;96822.97;;;12.23;66.26
21185;BME280;18176;49.502;11.754;2023-02-22T10:01:49;96816.44;;;12.47;66.20
21185;BME280;18176;49.502;11.754;2023-02-22T10:06:03;96817.94;;;12.59;66.29
21185;BME280;18176;49.502;11.754;2023-02-22T10:10:17;96814.47;;;12.97;66.13
21185;BME280;18176;49.502;11.754;2023-02-22T10:14:51;96807.63;;;13.23;63.37
21185;BME280;18176;49.502;11.754;2023-02-22T10:19:41;96813.63;;;13.62;63.92
21185;BME280;18176;49.502;11.754;2023-02-22T10:24:06;96805.59;;;13.88;62.29
21185;BME280;18176;49.502;11.754;2023-02-22T10:28:24;96807.81;;;13.96;62.48
21185;BME280;18176;49.502;11.754;2023-02-22T10:32:42;96795.63;;;14.37;61.89
21185;BME280;18176;49.502;11.754;2023-02-22T10:36:58;96795.78;;;14.62;61.17
21185;BME280;18176;49.502;11.754;2023-02-22T10:41:19;96790.97;;;15.16;59.04
21185;BME280;18176;49.502;11.754;2023-02-22T10:45:32;96789.25;;;15.67;57.78
21185;BME280;18176;49.502;11.754;2023-02-22T10:49:39;96779.13;;;15.74;56.64
21185;BME280;18176;49.502;11.754;2023-02-22T10:54:17;96784.41;;;16.65;54.95
21185;BME280;18176;49.502;11.754;2023-02-22T10:58:24;96777.09;;;17.49;53.60
21185;BME280;18176;49.502;11.754;2023-02-22T11:02:30;96772.50;;;18.61;50.60
21185;BME280;18176;49.502;11.754;2023-02-22T11:06:43;96757.94;;;18.91;48.42
21185;BME280;18176;49.502;11.754;2023-02-22T11:11:00;96761.81;;;19.46;48.17
21185;BME280;18176;49.502;11.754;2023-02-22T11:15:29;96762.94;;;19.21;49.28
21185;BME280;18176;49.502;11.754;2023-02-22T11:19:33;96742.06;;;20.39;45.90
21185;BME280;18176;49.502;11.754;2023-02-22T11:23:41;96743.00;;;20.88;45.53
21185;BME280;18176;49.502;11.754;2023-02-22T11:27:53;96736.22;;;21.32;44.18
21185;BME280;18176;49.502;11.754;2023-02-22T11:32:00;96727.03;;;21.68;43.64
21185;BME280;18176;49.502;11.754;2023-02-22T11:36:08;96714.63;;;21.45;42.99
21185;BME280;18176;49.502;11.754;2023-02-22T11:40:19;96717.75;;;21.97;42.47
21185;BME280;18176;49.502;11.754;2023-02-22T11:44:29;96709.91;;;22.70;40.79
21185;BME280;18176;49.502;11.754;2023-02-22T11:48:37;96705.09;;;22.28;40.98
21185;BME280;18176;49.502;11.754;2023-02-22T11:53:19;96698.97;;;22.75;41.07
21185;BME280;18176;49.502;11.754;2023-02-22T11:57:47;96691.22;;;22.21;40.86
21185;BME280;18176;49.502;11.754;2023-02-22T12:02:24;96691.69;;;22.14;41.61
21185;BME280;18176;49.502;11.754;2023-02-22T12:06:41;96686.72;;;21.86;41.32
21185;BME280;18176;49.502;11.754;2023-02-22T12:11:05;96694.31;;;21.61;42.06
21185;BME280;18176;49.502;11.754;2023-02-22T12:15:24;96684.84;;;21.86;42.01
21185;BME280;18176;49.502;11.754;2023-02-22T12:19:42;96681.34;;;22.86;40.55
21185;BME280;18176;49.502;11.754;2023-02-22T12:23:59;96679.09;;;22.41;40.94
21185;BME280;18176;49.502;11.754;2023-02-22T12:28:29;96674.38;;;22.85;40.58
21185;BME280;18176;49.502;11.754;2023-02-22T12:32:40;96662.78;;;24.05;38.28
21185;BME280;18176;49.502;11.754;2023-02-22T12:36:52;96657.47;;;24.42;36.85
21185;BME280;18176;49.502;11.754;2023-02-22T12:41:06;96655.56;;;25.51;36.28
21185;BME280;18176;49.502;11.754;2023-02-22T12:45:29;96653.28;;;25.95;34.33
21185;BME280;18176;49.502;11.754;2023-02-22T12:50:08;96654.84;;;25.96;34.36
21185;BME280;18176;49.502;11.754;2023-02-22T12:54:27;96638.47;;;26.85;33.49
21185;BME280;18176;49.502;11.754;2023-02-22T12:58:47;96634.56;;;26.14;33.35
21185;BME280;18176;49.502;11.754;2023-02-22T13:02:59;96634.72;;;26.09;34.64
21185;BME280;18176;49.502;11.754;2023-02-22T13:07:22;96622.75;;;27.31;32.49
21185;BME280;18176;49.502;11.754;2023-02-22T13:11:48;96623.75;;;28.21;31.38
21185;BME280;18176;49.502;11.754;2023-02-22T13:16:24;96619.00;;;28.18;30.95
21185;BME280;18176;49.502;11.754;2023-02-22T13:20:40;96619.03;;;28.81;30.17
21185;BME280;18176;49.502;11.754;2023-02-22T13:25:00;96606.97;;;27.36;31.38
21185;BME280;18176;49.502;11.754;2023-02-22T13:29:14;96601.34;;;28.28;30.90
21185;BME280;18176;49.502;11.754;2023-02-22T13:33:42;96594.72;;;27.70;31.09
21185;BME280;18176;49.502;11.754;2023-02-22T13:38:21;96595.91;;;27.17;32.12
21185;BME280;18176;49.502;11.754;2023-02-22T13:42:58;96588.44;;;26.74;32.52
21185;BME280;18176;49.502;11.754;2023-02-22T13:52:08;96585.72;;;24.78;35.35
21185;BME280;18176;49.502;11.754;2023-02-22T13:56:13;96572.97;;;26.06;33.07
21185;BME280;18176;49.502;11.754;2023-02-22T14:00:51;96582.41;;;25.75;32.87
21185;BME280;18176;49.502;11.754;2023-02-22T14:04:59;96583.78;;;24.20;35.34
21185;BME280;18176;49.502;11.754;2023-02-22T14:09:42;96576.03;;;24.01;35.89
21185;BME280;18176;49.502;11.754;2023-02-22T14:14:14;96576.75;;;24.57;35.65
21185;BME280;18176;49.502;11.754;2023-02-22T14:18:18;96575.63;;;25.28;34.30
21185;BME280;18176;49.502;11.754;2023-02-22T14:22:28;96560.69;;;25.75;33.31
21185;BME280;18176;49.502;11.754;2023-02-22T14:26:32;96572.59;;;25.95;33.28
21185;BME280;18176;49.502;11.754;2023-02-22T14:30:37;96562.34;;;26.25;32.18
21185;BME280;18176;49.502;11.754;2023-02-22T14:34:48;96566.22;;;25.26;33.40
21185;BME280;18176;49.502;11.754;2023-02-22T14:39:15;96565.41;;;24.34;34.49
21185;BME280;18176;49.502;11.754;2023-02-22T14:43:21;96576.00;;;24.18;35.13
21185;BME280;18176;49.502;11.754;2023-02-22T14:47:28;96560.38;;;23.69;35.82
21185;BME280;18176;49.502;11.754;2023-02-22T14:51:42;96559.47;;;23.48;36.36
21185;BME280;18176;49.502;11.754;2023-02-22T14:55:51;96557.38;;;23.62;36.62
21185;BME280;18176;49.502;11.754;2023-02-22T15:00:06;96553.69;;;23.66;36.36
21185;BME280;18176;49.502;11.754;2023-02-22T15:04:25;96562.16;;;23.31;36.58
21185;BME280;18176;49.502;11.754;2023-02-22T15:08:29;96560.75;;;22.34;38.11
21185;BME280;18176;49.502;11.754;2023-02-22T15:12:34;96557.81;;;22.05;38.93
21185;BME280;18176;49.502;11.754;2023-02-22T15:16:51;96556.63;;;21.66;40.16
21185;BME280;18176;49.502;11.754;2023-02-22T15:20:57;96550.66;;;21.25;40.92
21185;BME280;18176;49.502;11.754;2023-02-22T15:25:07;96560.25;;;20.60;42.65
21185;BME280;18176;49.502;11.754;2023-02-22T15:29:19;96551.19;;;20.01;43.76
21185;BME280;18176;49.502;11.754;2023-02-22T15:33:21;96549.88;;;19.85;44.12
21185;BME280;18176;49.502;11.754;2023-02-22T15:37:34;96551.78;;;19.39;45.33
21185;BME280;18176;49.502;11.754;2023-02-22T15:41:39;96549.13;;;19.20;45.77
21185;BME280;18176;49.502;11.754;2023-02-22T15:45:43;96559.03;;;19.06;46.77
21185;BME280;18176;49.502;11.754;2023-02-22T15:50:19;96543.28;;;19.00;46.46
21185;BME280;18176;49.502;11.754;2023-02-22T15:54:22;96551.56;;;18.84;46.52
21185;BME280;18176;49.502;11.754;2023-02-22T15:58:27;96554.69;;;18.54;47.51
21185;BME280;18176;49.502;11.754;2023-02-22T16:02:37;96551.56;;;18.47;47.83
21185;BME280;18176;49.502;11.754;2023-02-22T16:06:44;96557.88;;;18.14;48.71
21185;BME280;18176;49.502;11.754;2023-02-22T16:10:54;96558.19;;;17.84;49.66
21185;BME280;18176;49.502;11.754;2023-02-22T16:14:58;96557.75;;;17.43;51.16
21185;BME280;18176;49.502;11.754;2023-02-22T16:19:33;96555.44;;;17.31;51.60
21185;BME280;18176;49.502;11.754;2023-02-22T16:23:47;96560.97;;;17.11;52.38
21185;BME280;18176;49.502;11.754;2023-02-22T16:27:50;96549.88;;;16.94;52.91
21185;BME280;18176;49.502;11.754;2023-02-22T16:31:53;96554.41;;;16.60;53.76
21185;BME280;18176;49.502;11.754;2023-02-22T16:35:57;96539.03;;;16.27;54.94
21185;BME280;18176;49.502;11.754;2023-02-22T16:39:58;96547.41;;;16.05;56.51
21185;BME280;18176;49.502;11.754;2023-02-22T16:43:59;96558.44;;;15.83;56.65
21185;BME280;18176;49.502;11.754;2023-02-22T16:48:01;96552.88;;;15.70;57.33
21185;BME280;18176;49.502;11.754;2023-02-22T16:52:13;96559.56;;;15.62;57.66
21185;BME280;18176;49.502;11.754;2023-02-22T16:56:18;96557.44;;;15.44;58.33
21185;BME280;18176;49.502;11.754;2023-02-22T17:00:22;96556.63;;;15.33;59.59
21185;BME280;18176;49.502;11.754;2023-02-22T17:04:28;96563.03;;;15.02;60.17
21185;BME280;18176;49.502;11.754;2023-02-22T17:08:31;96561.72;;;15.00;59.95
21185;BME280;18176;49.502;11.754;2023-02-22T17:12:32;96554.22;;;14.76;60.82
21185;BME280;18176;49.502;11.754;2023-02-22T17:16:34;96561.97;;;14.73;61.21
21185;BME280;18176;49.502;11.754;2023-02-22T17:20:39;96563.28;;;14.70;61.86
21185;BME280;18176;49.502;11.754;2023-02-22T17:24:44;96563.50;;;14.54;61.86
21185;BME280;18176;49.502;11.754;2023-02-22T17:28:50;96568.03;;;14.43;62.42
21185;BME280;18176;49.502;11.754;2023-02-22T17:32:51;96560.53;;;14.35;63.09
21185;BME280;18176;49.502;11.754;2023-02-22T17:36:52;96570.00;;;14.06;64.26
21185;BME280;18176;49.502;11.754;2023-02-22T17:41:00;96577.38;;;13.89;64.38
21185;BME280;18176;49.502;11.754;2023-02-22T17:45:01;96574.56;;;13.64;65.33
21185;BME280;18176;49.502;11.754;2023-02-22T17:49:04;96577.72;;;13.61;65.68
21185;BME280;18176;49.502;11.754;2023-02-22T17:53:05;96576.25;;;13.38;66.30
21185;BME280;18176;49.502;11.754;2023-02-22T17:57:10;96577.41;;;13.15;67.12
21185;BME280;18176;49.502;11.754;2023-02-22T18:01:20;96558.31;;;12.92;67.72
21185;BME280;18176;49.502;11.754;2023-02-22T18:05:25;96567.63;;;12.94;67.74
21185;BME280;18176;49.502;11.754;2023-02-22T18:09:26;96577.28;;;13.00;68.00
21185;BME280;18176;49.502;11.754;2023-02-22T18:13:30;96575.78;;;12.83;68.60
21185;BME280;18176;49.502;11.754;2023-02-22T18:17:33;96577.06;;;12.80;68.69
21185;BME280;18176;49.502;11.754;2023-02-22T18:21:37;96575.94;;;12.71;69.40
21185;BME280;18176;49.502;11.754;2023-02-22T18:25:38;96564.00;;;12.47;69.53
21185;BME280;18176;49.502;11.754;2023-02-22T18:29:42;96557.06;;;12.41;69.68
21185;BME280;18176;49.502;11.754;2023-02-22T18:33:48;96569.31;;;12.47;69.97
21185;BME280;18176;49.502;11.754;2023-02-22T18:37:49;96570.28;;;12.36;70.47
21185;BME280;18176;49.502;11.754;2023-02-22T18:41:50;96572.31;;;12.29;70.81
21185;BME280;18176;49.502;11.754;2023-02-22T18:45:53;96574.75;;;12.09;71.71
21185;BME280;18176;49.502;11.754;2023-02-22T18:49:54;96577.13;;;11.88;73.03
21185;BME280;18176;49.502;11.754;2023-02-22T18:53:56;96554.66;;;11.74;73.07
21185;BME280;18176;49.502;11.754;2023-02-22T18:58:04;96559.06;;;11.85;73.18
21185;BME280;18176;49.502;11.754;2023-02-22T19:02:12;96575.53;;;11.87;73.11
21185;BME280;18176;49.502;11.754;2023-02-22T19:06:15;96569.44;;;11.87;73.03
21185;BME280;18176;49.502;11.754;2023-02-22T19:10:16;96563.94;;;11.93;72.62
21185;BME280;18176;49.502;11.754;2023-02-22T19:14:20;96560.25;;;11.94;72.23
21185;BME280;18176;49.502;11.754;2023-02-22T19:18:24;96559.31;;;12.06;71.74
21185;BME280;18176;49.502;11.754;2023-02-22T19:22:25;96567.31;;;11.89;72.45
21185;BME280;18176;49.502;11.754;2023-02-22T19:26:30;96566.03;;;11.91;72.24
21185;BME280;18176;49.502;11.754;2023-02-22T19:30:31;96572.38;;;11.90;72.20
21185;BME280;18176;49.502;11.754;2023-02-22T19:34:35;96575.84;;;11.91;71.79
21185;BME280;18176;49.502;11.754;2023-02-22T19:38:41;96561.22;;;11.88;72.38
21185;BME280;18176;49.502;11.754;2023-02-22T19:42:42;96562.13;;;11.77;72.61
21185;BME280;18176;49.502;11.754;2023-02-22T19:46:45;96572.81;;;11.66;73.47
21185;BME280;18176;49.502;11.754;2023-02-22T19:50:49;96570.44;;;11.64;73.41
21185;BME280;18176;49.502;11.754;2023-02-22T19:54:56;96576.22;;;11.78;72.64
21185;BME280;18176;49.502;11.754;2023-02-22T19:58:59;96565.59;;;11.78;72.03
21185;BME280;18176;49.502;11.754;2023-02-22T20:03:07;96585.66;;;11.69;73.18
21185;BME280;18176;49.502;11.754;2023-02-22T20:07:12;96586.19;;;11.71;72.98
21185;BME280;18176;49.502;11.754;2023-02-22T20:11:12;96583.63;;;11.59;73.37
21185;BME280;18176;49.502;11.754;2023-02-22T20:15:14;96586.69;;;11.68;72.94
21185;BME280;18176;49.502;11.754;2023-02-22T20:19:18;96587.31;;;11.58;73.46
21185;BME280;18176;49.502;11.754;2023-02-22T20:23:22;96587.66;;;11.45;73.87
21185;BME280;18176;49.502;11.754;2023-02-22T20:27:22;96592.66;;;11.42;74.19
21185;BME280;18176;49.502;11.754;2023-02-22T20:31:26;96588.38;;;11.41;74.34
21185;BME280;18176;49.502;11.754;2023-02-22T20:35:27;96582.34;;;11.45;73.83
21185;BME280;18176;49.502;11.754;2023-02-22T20:39:31;96596.69;;;11.44;74.20
21185;BME280;18176;49.502;11.754;2023-02-22T20:43:33;96599.88;;;11.46;73.98
21185;BME280;18176;49.502;11.754;2023-02-22T20:47:34;96598.09;;;11.35;74.02
21185;BME280;18176;49.502;11.754;2023-02-22T20:51:37;96582.44;;;11.17;74.66
21185;BME280;18176;49.502;11.754;2023-02-22T20:55:51;96588.16;;;11.09;75.21
21185;BME280;18176;49.502;11.754;2023-02-22T20:59:55;96587.69;;;11.12;75.05
21185;BME280;18176;49.502;11.754;2023-02-22T21:03:59;96599.59;;;11.09;74.67
21185;BME280;18176;49.502;11.754;2023-02-22T21:08:00;96572.88;;;10.83;75.73
21185;BME280;18176;49.502;11.754;2023-02-22T21:12:05;96599.63;;;10.81;76.06
21185;BME280;18176;49.502;11.754;2023-02-22T21:16:17;96584.44;;;10.77;75.91
21185;BME280;18176;49.502;11.754;2023-02-22T21:20:18;96589.66;;;10.72;76.29
21185;BME280;18176;49.502;11.754;2023-02-22T21:24:18;96583.88;;;10.75;76.34
21185;BME280;18176;49.502;11.754;2023-02-22T21:28:22;96594.72;;;10.90;76.22
21185;BME280;18176;49.502;11.754;2023-02-22T21:32:41;96596.56;;;10.89;75.66
21185;BME280;18176;49.502;11.754;2023-02-22T21:36:42;96602.53;;;10.80;75.76
21185;BME280;18176;49.502;11.754;2023-02-22T21:40:45;96593.63;;;10.86;75.56
21185;BME280;18176;49.502;11.754;2023-02-22T21:44:50;96590.56;;;10.77;75.59
21185;BME280;18176;49.502;11.754;2023-02-22T21:48:52;96586.84;;;10.78;75.63
21185;BME280;18176;49.502;11.754;2023-02-22T21:52:56;96585.72;;;10.74;75.60
21185;BME280;18176;49.502;11.754;2023-02-22T21:56:58;96593.59;;;10.69;75.86
21185;BME280;18176;49.502;11.754;2023-02-22T22:01:09;96591.19;;;10.68;75.80